Kingville, Alabama
Current Conditions -  °F | °C
As of 9:38 PM on Sunday 21 Dec 2014 (Local Time) from KCBM Reporting Station
Overcast Overcast  
Wind Chill: 46°   Ceiling: 3000
Heat Index: 46°   Visibility: 10mi
Dew Point: 46°   Wind: 0mph
Humidity: 100%   Direction: NA
Pressure: 30.03"   Gusts: NA
Location:  33.5851°N, 88.0494°W
Report Text: KCBM 220338Z AUTO 00000KT 10SM SCT010 OVC030 08/08 A3003 RMK AO2 CIG 010 RWY13C $
Loading
Personal Weather Stations






























Interactive Weather Map New forecast layout! Learn more

10-Day Weather Forecast

Advertisements
Track Severe Weather on mobile